sensor_id;sensor_type;location;lat;lon;timestamp;P1;durP1;ratioP1;P2;durP2;ratioP2
66870;SDS011;53780;44.998;9.926;2023-06-26T00:02:41;7.03;;;3.90;;
66870;SDS011;53780;44.998;9.926;2023-06-26T00:05:45;8.23;;;4.10;;
66870;SDS011;53780;44.998;9.926;2023-06-26T00:08:54;9.32;;;4.60;;
66870;SDS011;53780;44.998;9.926;2023-06-26T00:11:58;9.77;;;4.88;;
66870;SDS011;53780;44.998;9.926;2023-06-26T00:15:02;10.20;;;4.30;;
66870;SDS011;53780;44.998;9.926;2023-06-26T00:18:08;10.20;;;4.90;;
66870;SDS011;53780;44.998;9.926;2023-06-26T00:21:11;10.03;;;4.70;;
66870;SDS011;53780;44.998;9.926;2023-06-26T00:24:16;8.40;;;4.60;;
66870;SDS011;53780;44.998;9.926;2023-06-26T00:27:20;8.20;;;4.75;;
66870;SDS011;53780;44.998;9.926;2023-06-26T00:30:24;9.70;;;4.95;;
66870;SDS011;53780;44.998;9.926;2023-06-26T00:33:28;9.95;;;4.70;;
66870;SDS011;53780;44.998;9.926;2023-06-26T00:36:31;8.03;;;4.57;;
66870;SDS011;53780;44.998;9.926;2023-06-26T00:39:36;8.98;;;4.75;;
66870;SDS011;53780;44.998;9.926;2023-06-26T00:42:39;9.65;;;4.90;;
66870;SDS011;53780;44.998;9.926;2023-06-26T00:45:43;9.48;;;5.00;;
66870;SDS011;53780;44.998;9.926;2023-06-26T00:48:48;7.35;;;4.68;;
66870;SDS011;53780;44.998;9.926;2023-06-26T00:51:52;10.73;;;5.23;;
66870;SDS011;53780;44.998;9.926;2023-06-26T00:54:57;8.93;;;5.38;;
66870;SDS011;53780;44.998;9.926;2023-06-26T00:58:01;12.10;;;5.93;;
66870;SDS011;53780;44.998;9.926;2023-06-26T01:01:05;10.57;;;5.63;;
66870;SDS011;53780;44.998;9.926;2023-06-26T01:04:12;14.27;;;6.30;;
66870;SDS011;53780;44.998;9.926;2023-06-26T01:07:21;12.50;;;6.77;;
66870;SDS011;53780;44.998;9.926;2023-06-26T01:10:25;10.65;;;6.50;;
66870;SDS011;53780;44.998;9.926;2023-06-26T01:13:32;12.30;;;7.05;;
66870;SDS011;53780;44.998;9.926;2023-06-26T01:16:37;13.32;;;6.55;;
66870;SDS011;53780;44.998;9.926;2023-06-26T01:19:42;12.65;;;6.38;;
66870;SDS011;53780;44.998;9.926;2023-06-26T01:29:23;11.55;;;6.85;;
66870;SDS011;53780;44.998;9.926;2023-06-26T01:32:29;12.05;;;6.07;;
66870;SDS011;53780;44.998;9.926;2023-06-26T01:35:34;12.60;;;6.75;;
66870;SDS011;53780;44.998;9.926;2023-06-26T01:38:42;11.33;;;6.30;;
66870;SDS011;53780;44.998;9.926;2023-06-26T01:41:46;11.57;;;5.55;;
66870;SDS011;53780;44.998;9.926;2023-06-26T01:44:51;14.70;;;6.07;;
66870;SDS011;53780;44.998;9.926;2023-06-26T01:47:56;12.30;;;6.00;;
66870;SDS011;53780;44.998;9.926;2023-06-26T01:51:03;11.18;;;5.68;;
66870;SDS011;53780;44.998;9.926;2023-06-26T01:54:12;47.87;;;6.80;;
66870;SDS011;53780;44.998;9.926;2023-06-26T01:57:20;63.05;;;7.57;;
66870;SDS011;53780;44.998;9.926;2023-06-26T02:00:26;50.42;;;7.35;;
66870;SDS011;53780;44.998;9.926;2023-06-26T02:03:30;36.88;;;6.85;;
66870;SDS011;53780;44.998;9.926;2023-06-26T02:06:34;38.20;;;6.85;;
66870;SDS011;53780;44.998;9.926;2023-06-26T02:09:38;23.50;;;6.07;;
66870;SDS011;53780;44.998;9.926;2023-06-26T02:12:42;16.45;;;5.68;;
66870;SDS011;53780;44.998;9.926;2023-06-26T02:15:46;12.77;;;5.40;;
66870;SDS011;53780;44.998;9.926;2023-06-26T02:18:51;10.55;;;5.70;;
66870;SDS011;53780;44.998;9.926;2023-06-26T02:21:55;15.65;;;6.13;;
66870;SDS011;53780;44.998;9.926;2023-06-26T02:25:01;24.60;;;6.43;;
66870;SDS011;53780;44.998;9.926;2023-06-26T02:28:05;18.92;;;6.35;;
66870;SDS011;53780;44.998;9.926;2023-06-26T02:31:09;18.83;;;7.32;;
66870;SDS011;53780;44.998;9.926;2023-06-26T02:34:13;17.83;;;7.70;;
66870;SDS011;53780;44.998;9.926;2023-06-26T02:37:17;16.77;;;8.27;;
66870;SDS011;53780;44.998;9.926;2023-06-26T02:40:21;17.23;;;7.70;;
66870;SDS011;53780;44.998;9.926;2023-06-26T02:43:25;16.10;;;7.78;;
66870;SDS011;53780;44.998;9.926;2023-06-26T02:46:29;16.05;;;7.60;;
66870;SDS011;53780;44.998;9.926;2023-06-26T02:49:34;16.52;;;7.50;;
66870;SDS011;53780;44.998;9.926;2023-06-26T02:52:37;14.50;;;7.25;;
66870;SDS011;53780;44.998;9.926;2023-06-26T02:55:41;14.20;;;7.60;;
66870;SDS011;53780;44.998;9.926;2023-06-26T02:58:45;15.93;;;7.50;;
66870;SDS011;53780;44.998;9.926;2023-06-26T03:01:49;15.40;;;7.68;;
66870;SDS011;53780;44.998;9.926;2023-06-26T03:04:52;13.60;;;7.30;;
66870;SDS011;53780;44.998;9.926;2023-06-26T03:07:56;14.90;;;7.68;;
66870;SDS011;53780;44.998;9.926;2023-06-26T03:10:59;12.23;;;6.47;;
66870;SDS011;53780;44.998;9.926;2023-06-26T03:14:03;12.77;;;7.00;;
66870;SDS011;53780;44.998;9.926;2023-06-26T03:17:07;13.68;;;6.95;;
66870;SDS011;53780;44.998;9.926;2023-06-26T03:20:12;12.18;;;6.82;;
66870;SDS011;53780;44.998;9.926;2023-06-26T03:23:24;13.68;;;6.25;;
66870;SDS011;53780;44.998;9.926;2023-06-26T03:26:28;13.67;;;6.30;;
66870;SDS011;53780;44.998;9.926;2023-06-26T03:29:34;12.85;;;6.05;;
66870;SDS011;53780;44.998;9.926;2023-06-26T03:32:39;11.52;;;5.93;;
66870;SDS011;53780;44.998;9.926;2023-06-26T03:35:43;11.40;;;5.65;;
66870;SDS011;53780;44.998;9.926;2023-06-26T03:38:50;14.93;;;5.70;;
66870;SDS011;53780;44.998;9.926;2023-06-26T03:41:55;11.70;;;5.57;;
66870;SDS011;53780;44.998;9.926;2023-06-26T03:45:04;11.07;;;5.85;;
66870;SDS011;53780;44.998;9.926;2023-06-26T03:48:10;12.35;;;6.03;;
66870;SDS011;53780;44.998;9.926;2023-06-26T03:51:14;10.48;;;5.70;;
66870;SDS011;53780;44.998;9.926;2023-06-26T03:54:18;11.15;;;6.15;;
66870;SDS011;53780;44.998;9.926;2023-06-26T03:57:21;11.27;;;6.10;;
66870;SDS011;53780;44.998;9.926;2023-06-26T04:00:25;12.52;;;6.20;;
66870;SDS011;53780;44.998;9.926;2023-06-26T04:03:31;12.48;;;6.30;;
66870;SDS011;53780;44.998;9.926;2023-06-26T04:06:35;12.77;;;6.30;;
66870;SDS011;53780;44.998;9.926;2023-06-26T04:09:39;12.45;;;7.00;;
66870;SDS011;53780;44.998;9.926;2023-06-26T04:12:44;11.67;;;6.10;;
66870;SDS011;53780;44.998;9.926;2023-06-26T04:15:48;11.82;;;6.10;;
66870;SDS011;53780;44.998;9.926;2023-06-26T04:18:52;11.68;;;6.15;;
66870;SDS011;53780;44.998;9.926;2023-06-26T04:21:56;14.07;;;6.63;;
66870;SDS011;53780;44.998;9.926;2023-06-26T04:25:01;19.95;;;6.90;;
66870;SDS011;53780;44.998;9.926;2023-06-26T04:28:06;22.13;;;6.80;;
66870;SDS011;53780;44.998;9.926;2023-06-26T04:31:10;22.48;;;6.95;;
66870;SDS011;53780;44.998;9.926;2023-06-26T04:34:14;31.98;;;6.93;;
66870;SDS011;53780;44.998;9.926;2023-06-26T04:37:18;23.40;;;6.63;;
66870;SDS011;53780;44.998;9.926;2023-06-26T04:40:23;18.05;;;5.95;;
66870;SDS011;53780;44.998;9.926;2023-06-26T04:43:26;16.93;;;6.00;;
66870;SDS011;53780;44.998;9.926;2023-06-26T04:46:30;17.63;;;6.32;;
66870;SDS011;53780;44.998;9.926;2023-06-26T04:49:34;12.32;;;6.30;;
66870;SDS011;53780;44.998;9.926;2023-06-26T04:52:38;12.43;;;5.78;;
66870;SDS011;53780;44.998;9.926;2023-06-26T04:55:42;12.95;;;6.00;;
66870;SDS011;53780;44.998;9.926;2023-06-26T04:58:45;9.87;;;5.70;;
66870;SDS011;53780;44.998;9.926;2023-06-26T05:01:49;10.85;;;5.63;;
66870;SDS011;53780;44.998;9.926;2023-06-26T05:04:53;10.38;;;5.90;;
66870;SDS011;53780;44.998;9.926;2023-06-26T05:07:57;12.55;;;5.80;;
66870;SDS011;53780;44.998;9.926;2023-06-26T05:11:01;10.45;;;6.03;;
66870;SDS011;53780;44.998;9.926;2023-06-26T05:14:05;12.73;;;6.00;;
66870;SDS011;53780;44.998;9.926;2023-06-26T05:17:10;11.18;;;6.40;;
66870;SDS011;53780;44.998;9.926;2023-06-26T05:20:14;12.63;;;6.10;;
66870;SDS011;53780;44.998;9.926;2023-06-26T05:23:18;11.77;;;5.63;;
66870;SDS011;53780;44.998;9.926;2023-06-26T05:26:22;12.93;;;6.05;;
66870;SDS011;53780;44.998;9.926;2023-06-26T05:29:27;13.63;;;5.50;;
66870;SDS011;53780;44.998;9.926;2023-06-26T05:32:31;11.45;;;5.55;;
66870;SDS011;53780;44.998;9.926;2023-06-26T05:35:38;9.85;;;5.68;;
66870;SDS011;53780;44.998;9.926;2023-06-26T05:38:42;9.68;;;5.57;;
66870;SDS011;53780;44.998;9.926;2023-06-26T05:41:47;10.90;;;5.97;;
66870;SDS011;53780;44.998;9.926;2023-06-26T05:44:51;10.73;;;5.70;;
66870;SDS011;53780;44.998;9.926;2023-06-26T05:47:55;11.93;;;5.72;;
66870;SDS011;53780;44.998;9.926;2023-06-26T05:50:58;12.30;;;7.07;;
66870;SDS011;53780;44.998;9.926;2023-06-26T05:54:02;10.52;;;6.22;;
66870;SDS011;53780;44.998;9.926;2023-06-26T05:57:07;7.80;;;5.07;;
66870;SDS011;53780;44.998;9.926;2023-06-26T06:00:11;13.90;;;7.10;;
66870;SDS011;53780;44.998;9.926;2023-06-26T06:03:19;9.55;;;5.70;;
66870;SDS011;53780;44.998;9.926;2023-06-26T06:06:23;9.27;;;4.88;;
66870;SDS011;53780;44.998;9.926;2023-06-26T06:09:26;10.10;;;5.88;;
66870;SDS011;53780;44.998;9.926;2023-06-26T06:12:30;8.27;;;5.25;;
66870;SDS011;53780;44.998;9.926;2023-06-26T06:15:34;11.30;;;6.40;;
66870;SDS011;53780;44.998;9.926;2023-06-26T06:18:37;7.40;;;3.95;;
66870;SDS011;53780;44.998;9.926;2023-06-26T06:21:41;7.32;;;3.70;;
66870;SDS011;53780;44.998;9.926;2023-06-26T06:24:46;7.10;;;4.18;;
66870;SDS011;53780;44.998;9.926;2023-06-26T06:27:51;8.35;;;4.97;;
66870;SDS011;53780;44.998;9.926;2023-06-26T06:30:55;7.97;;;3.87;;
66870;SDS011;53780;44.998;9.926;2023-06-26T06:33:59;6.55;;;3.60;;
66870;SDS011;53780;44.998;9.926;2023-06-26T06:37:03;8.93;;;4.38;;
66870;SDS011;53780;44.998;9.926;2023-06-26T06:40:08;11.25;;;5.82;;
66870;SDS011;53780;44.998;9.926;2023-06-26T06:43:13;10.32;;;5.30;;
66870;SDS011;53780;44.998;9.926;2023-06-26T06:46:16;8.80;;;4.17;;
66870;SDS011;53780;44.998;9.926;2023-06-26T06:49:20;8.65;;;4.72;;
66870;SDS011;53780;44.998;9.926;2023-06-26T06:52:24;7.82;;;4.70;;
66870;SDS011;53780;44.998;9.926;2023-06-26T06:55:28;7.65;;;4.50;;
66870;SDS011;53780;44.998;9.926;2023-06-26T06:58:32;7.93;;;4.82;;
66870;SDS011;53780;44.998;9.926;2023-06-26T07:01:37;11.90;;;5.93;;
66870;SDS011;53780;44.998;9.926;2023-06-26T07:04:42;6.65;;;4.22;;
66870;SDS011;53780;44.998;9.926;2023-06-26T07:07:46;9.75;;;4.70;;
66870;SDS011;53780;44.998;9.926;2023-06-26T07:10:49;8.35;;;3.80;;
66870;SDS011;53780;44.998;9.926;2023-06-26T07:13:54;7.88;;;4.10;;
66870;SDS011;53780;44.998;9.926;2023-06-26T07:16:58;5.90;;;3.80;;
66870;SDS011;53780;44.998;9.926;2023-06-26T07:20:02;7.28;;;4.30;;
66870;SDS011;53780;44.998;9.926;2023-06-26T07:23:11;8.45;;;4.55;;
66870;SDS011;53780;44.998;9.926;2023-06-26T07:26:14;6.88;;;3.95;;
66870;SDS011;53780;44.998;9.926;2023-06-26T07:29:19;7.47;;;4.13;;
66870;SDS011;53780;44.998;9.926;2023-06-26T07:32:23;7.17;;;4.20;;
66870;SDS011;53780;44.998;9.926;2023-06-26T07:35:26;7.15;;;4.38;;
66870;SDS011;53780;44.998;9.926;2023-06-26T07:38:30;9.52;;;4.95;;
66870;SDS011;53780;44.998;9.926;2023-06-26T07:41:34;7.35;;;4.30;;
66870;SDS011;53780;44.998;9.926;2023-06-26T07:44:38;8.10;;;4.18;;
66870;SDS011;53780;44.998;9.926;2023-06-26T07:47:42;9.60;;;5.17;;
66870;SDS011;53780;44.998;9.926;2023-06-26T07:50:45;7.68;;;4.40;;
66870;SDS011;53780;44.998;9.926;2023-06-26T07:53:49;9.40;;;4.70;;
66870;SDS011;53780;44.998;9.926;2023-06-26T07:56:57;6.78;;;4.00;;
66870;SDS011;53780;44.998;9.926;2023-06-26T08:00:02;7.85;;;3.70;;
66870;SDS011;53780;44.998;9.926;2023-06-26T08:03:17;6.07;;;3.73;;
66870;SDS011;53780;44.998;9.926;2023-06-26T08:06:21;9.48;;;3.95;;
66870;SDS011;53780;44.998;9.926;2023-06-26T08:09:26;7.60;;;4.25;;
66870;SDS011;53780;44.998;9.926;2023-06-26T08:12:31;6.03;;;3.97;;
66870;SDS011;53780;44.998;9.926;2023-06-26T08:15:35;6.40;;;4.25;;
66870;SDS011;53780;44.998;9.926;2023-06-26T08:18:39;5.33;;;3.47;;
66870;SDS011;53780;44.998;9.926;2023-06-26T08:21:46;6.50;;;4.30;;
66870;SDS011;53780;44.998;9.926;2023-06-26T08:24:50;10.13;;;5.38;;
66870;SDS011;53780;44.998;9.926;2023-06-26T08:27:53;6.50;;;4.50;;
66870;SDS011;53780;44.998;9.926;2023-06-26T08:30:58;6.57;;;4.10;;
66870;SDS011;53780;44.998;9.926;2023-06-26T08:34:03;6.33;;;4.00;;
66870;SDS011;53780;44.998;9.926;2023-06-26T08:37:08;6.15;;;3.70;;
66870;SDS011;53780;44.998;9.926;2023-06-26T08:40:16;5.35;;;3.50;;
66870;SDS011;53780;44.998;9.926;2023-06-26T08:43:21;6.93;;;3.58;;
66870;SDS011;53780;44.998;9.926;2023-06-26T08:46:25;6.07;;;4.03;;
66870;SDS011;53780;44.998;9.926;2023-06-26T08:53:17;5.88;;;3.60;;
66870;SDS011;53780;44.998;9.926;2023-06-26T08:56:42;7.30;;;3.97;;
66870;SDS011;53780;44.998;9.926;2023-06-26T08:59:49;7.85;;;3.83;;
66870;SDS011;53780;44.998;9.926;2023-06-26T09:02:54;6.20;;;3.67;;
66870;SDS011;53780;44.998;9.926;2023-06-26T09:05:59;6.50;;;3.77;;
66870;SDS011;53780;44.998;9.926;2023-06-26T09:09:03;7.90;;;3.75;;
66870;SDS011;53780;44.998;9.926;2023-06-26T09:12:08;6.60;;;3.90;;
66870;SDS011;53780;44.998;9.926;2023-06-26T09:15:13;7.32;;;4.05;;
66870;SDS011;53780;44.998;9.926;2023-06-26T09:18:18;6.22;;;3.72;;
66870;SDS011;53780;44.998;9.926;2023-06-26T09:21:25;11.80;;;3.50;;
66870;SDS011;53780;44.998;9.926;2023-06-26T09:24:29;7.13;;;3.90;;
66870;SDS011;53780;44.998;9.926;2023-06-26T09:27:34;6.75;;;4.03;;
66870;SDS011;53780;44.998;9.926;2023-06-26T09:30:39;7.45;;;3.70;;
66870;SDS011;53780;44.998;9.926;2023-06-26T09:33:43;9.50;;;3.90;;
66870;SDS011;53780;44.998;9.926;2023-06-26T09:36:53;7.13;;;3.83;;
66870;SDS011;53780;44.998;9.926;2023-06-26T09:39:57;5.80;;;3.45;;
66870;SDS011;53780;44.998;9.926;2023-06-26T09:43:07;7.60;;;3.83;;
66870;SDS011;53780;44.998;9.926;2023-06-26T09:46:31;5.55;;;3.60;;
66870;SDS011;53780;44.998;9.926;2023-06-26T09:49:35;6.25;;;3.70;;
66870;SDS011;53780;44.998;9.926;2023-06-26T09:52:39;6.33;;;3.73;;
66870;SDS011;53780;44.998;9.926;2023-06-26T09:55:44;6.30;;;3.60;;
66870;SDS011;53780;44.998;9.926;2023-06-26T09:58:49;5.80;;;3.70;;
66870;SDS011;53780;44.998;9.926;2023-06-26T10:01:58;6.13;;;3.70;;
66870;SDS011;53780;44.998;9.926;2023-06-26T10:05:02;5.82;;;3.80;;
66870;SDS011;53780;44.998;9.926;2023-06-26T10:08:07;7.53;;;3.40;;
66870;SDS011;53780;44.998;9.926;2023-06-26T10:11:18;5.68;;;3.60;;
66870;SDS011;53780;44.998;9.926;2023-06-26T10:14:27;6.55;;;3.63;;
66870;SDS011;53780;44.998;9.926;2023-06-26T10:17:39;6.20;;;3.45;;
66870;SDS011;53780;44.998;9.926;2023-06-26T10:20:47;5.38;;;3.30;;
66870;SDS011;53780;44.998;9.926;2023-06-26T10:23:52;6.00;;;3.53;;
66870;SDS011;53780;44.998;9.926;2023-06-26T10:27:02;7.05;;;3.67;;
66870;SDS011;53780;44.998;9.926;2023-06-26T10:30:12;6.43;;;3.80;;
66870;SDS011;53780;44.998;9.926;2023-06-26T10:33:19;8.05;;;3.70;;
66870;SDS011;53780;44.998;9.926;2023-06-26T10:36:29;7.43;;;3.70;;
66870;SDS011;53780;44.998;9.926;2023-06-26T10:39:47;7.03;;;3.90;;
66870;SDS011;53780;44.998;9.926;2023-06-26T10:43:05;6.72;;;3.60;;
66870;SDS011;53780;44.998;9.926;2023-06-26T10:46:11;6.40;;;3.80;;
66870;SDS011;53780;44.998;9.926;2023-06-26T10:49:25;7.05;;;4.50;;
66870;SDS011;53780;44.998;9.926;2023-06-26T10:52:35;5.55;;;3.65;;
66870;SDS011;53780;44.998;9.926;2023-06-26T10:55:44;7.37;;;3.70;;
66870;SDS011;53780;44.998;9.926;2023-06-26T10:58:52;6.80;;;3.70;;
66870;SDS011;53780;44.998;9.926;2023-06-26T11:01:57;7.03;;;3.63;;
66870;SDS011;53780;44.998;9.926;2023-06-26T11:05:03;5.88;;;3.55;;
66870;SDS011;53780;44.998;9.926;2023-06-26T11:08:09;6.45;;;3.80;;
66870;SDS011;53780;44.998;9.926;2023-06-26T11:11:14;6.93;;;3.70;;
66870;SDS011;53780;44.998;9.926;2023-06-26T11:14:19;8.25;;;4.00;;
66870;SDS011;53780;44.998;9.926;2023-06-26T11:17:25;6.50;;;4.07;;
66870;SDS011;53780;44.998;9.926;2023-06-26T11:20:29;7.38;;;4.00;;
66870;SDS011;53780;44.998;9.926;2023-06-26T11:23:34;6.70;;;3.88;;
66870;SDS011;53780;44.998;9.926;2023-06-26T11:26:43;8.43;;;3.60;;
66870;SDS011;53780;44.998;9.926;2023-06-26T11:29:48;7.25;;;4.18;;
66870;SDS011;53780;44.998;9.926;2023-06-26T11:32:53;7.00;;;4.10;;
66870;SDS011;53780;44.998;9.926;2023-06-26T11:36:08;6.72;;;3.88;;
66870;SDS011;53780;44.998;9.926;2023-06-26T11:39:12;7.07;;;3.92;;
66870;SDS011;53780;44.998;9.926;2023-06-26T11:42:17;5.90;;;3.63;;
66870;SDS011;53780;44.998;9.926;2023-06-26T11:45:21;5.93;;;3.72;;
66870;SDS011;53780;44.998;9.926;2023-06-26T11:48:25;6.63;;;3.75;;
66870;SDS011;53780;44.998;9.926;2023-06-26T11:51:29;5.97;;;3.60;;
66870;SDS011;53780;44.998;9.926;2023-06-26T11:54:33;6.75;;;4.00;;
66870;SDS011;53780;44.998;9.926;2023-06-26T11:57:37;7.70;;;3.87;;
66870;SDS011;53780;44.998;9.926;2023-06-26T12:00:41;7.53;;;3.72;;
66870;SDS011;53780;44.998;9.926;2023-06-26T12:03:47;8.40;;;3.97;;
66870;SDS011;53780;44.998;9.926;2023-06-26T12:06:51;6.70;;;3.70;;
66870;SDS011;53780;44.998;9.926;2023-06-26T12:10:00;6.60;;;3.88;;
66870;SDS011;53780;44.998;9.926;2023-06-26T12:13:04;6.27;;;3.80;;
66870;SDS011;53780;44.998;9.926;2023-06-26T12:16:09;7.50;;;3.72;;
66870;SDS011;53780;44.998;9.926;2023-06-26T12:19:14;6.95;;;3.85;;
66870;SDS011;53780;44.998;9.926;2023-06-26T12:22:18;7.03;;;3.70;;
66870;SDS011;53780;44.998;9.926;2023-06-26T12:25:22;5.55;;;3.42;;
66870;SDS011;53780;44.998;9.926;2023-06-26T12:28:27;6.87;;;3.63;;
66870;SDS011;53780;44.998;9.926;2023-06-26T12:31:42;8.07;;;3.85;;
66870;SDS011;53780;44.998;9.926;2023-06-26T12:34:50;5.72;;;3.78;;
66870;SDS011;53780;44.998;9.926;2023-06-26T12:37:54;6.82;;;3.92;;
66870;SDS011;53780;44.998;9.926;2023-06-26T12:40:58;6.30;;;3.63;;
66870;SDS011;53780;44.998;9.926;2023-06-26T12:44:02;6.87;;;3.53;;
66870;SDS011;53780;44.998;9.926;2023-06-26T12:47:06;7.72;;;3.72;;
66870;SDS011;53780;44.998;9.926;2023-06-26T12:50:11;5.65;;;3.80;;
66870;SDS011;53780;44.998;9.926;2023-06-26T12:53:16;6.22;;;3.72;;
66870;SDS011;53780;44.998;9.926;2023-06-26T12:56:20;6.53;;;3.72;;
66870;SDS011;53780;44.998;9.926;2023-06-26T12:59:24;7.27;;;3.83;;
66870;SDS011;53780;44.998;9.926;2023-06-26T13:02:28;8.35;;;3.60;;
66870;SDS011;53780;44.998;9.926;2023-06-26T13:05:31;5.75;;;3.78;;
66870;SDS011;53780;44.998;9.926;2023-06-26T13:08:35;6.25;;;3.53;;
66870;SDS011;53780;44.998;9.926;2023-06-26T13:11:40;7.22;;;3.63;;
66870;SDS011;53780;44.998;9.926;2023-06-26T13:14:44;8.10;;;4.07;;
66870;SDS011;53780;44.998;9.926;2023-06-26T13:17:48;7.82;;;3.83;;
66870;SDS011;53780;44.998;9.926;2023-06-26T13:20:51;6.45;;;3.80;;
66870;SDS011;53780;44.998;9.926;2023-06-26T13:23:57;7.97;;;3.88;;
66870;SDS011;53780;44.998;9.926;2023-06-26T13:27:02;8.15;;;3.80;;
66870;SDS011;53780;44.998;9.926;2023-06-26T13:30:06;7.27;;;3.83;;
66870;SDS011;53780;44.998;9.926;2023-06-26T13:33:11;6.22;;;4.05;;
66870;SDS011;53780;44.998;9.926;2023-06-26T13:36:15;6.00;;;3.90;;
66870;SDS011;53780;44.998;9.926;2023-06-26T13:39:19;7.50;;;3.75;;
66870;SDS011;53780;44.998;9.926;2023-06-26T13:42:23;6.13;;;4.00;;
66870;SDS011;53780;44.998;9.926;2023-06-26T13:45:27;7.93;;;4.30;;
66870;SDS011;53780;44.998;9.926;2023-06-26T13:48:31;6.85;;;4.18;;
66870;SDS011;53780;44.998;9.926;2023-06-26T13:51:35;7.43;;;4.15;;
66870;SDS011;53780;44.998;9.926;2023-06-26T13:54:38;6.22;;;3.80;;
66870;SDS011;53780;44.998;9.926;2023-06-26T13:57:43;7.50;;;3.95;;
66870;SDS011;53780;44.998;9.926;2023-06-26T14:00:47;7.93;;;4.13;;
66870;SDS011;53780;44.998;9.926;2023-06-26T14:03:50;6.97;;;3.97;;
66870;SDS011;53780;44.998;9.926;2023-06-26T14:06:54;5.97;;;3.78;;
66870;SDS011;53780;44.998;9.926;2023-06-26T14:09:58;7.28;;;3.78;;
66870;SDS011;53780;44.998;9.926;2023-06-26T14:13:02;6.40;;;4.25;;
66870;SDS011;53780;44.998;9.926;2023-06-26T14:16:09;6.80;;;3.97;;
66870;SDS011;53780;44.998;9.926;2023-06-26T14:19:13;7.45;;;3.70;;
66870;SDS011;53780;44.998;9.926;2023-06-26T14:22:18;8.80;;;3.95;;
66870;SDS011;53780;44.998;9.926;2023-06-26T14:25:23;6.60;;;3.75;;
66870;SDS011;53780;44.998;9.926;2023-06-26T14:28:31;7.18;;;4.20;;
66870;SDS011;53780;44.998;9.926;2023-06-26T14:31:35;7.03;;;4.03;;
66870;SDS011;53780;44.998;9.926;2023-06-26T14:34:39;10.20;;;3.75;;
66870;SDS011;53780;44.998;9.926;2023-06-26T14:37:43;6.85;;;3.88;;
66870;SDS011;53780;44.998;9.926;2023-06-26T14:40:47;7.97;;;3.80;;
66870;SDS011;53780;44.998;9.926;2023-06-26T14:43:51;8.75;;;4.22;;
66870;SDS011;53780;44.998;9.926;2023-06-26T14:46:56;5.87;;;3.73;;
66870;SDS011;53780;44.998;9.926;2023-06-26T14:50:00;6.60;;;4.10;;
66870;SDS011;53780;44.998;9.926;2023-06-26T14:53:04;7.20;;;3.70;;
66870;SDS011;53780;44.998;9.926;2023-06-26T14:56:08;6.35;;;3.70;;
66870;SDS011;53780;44.998;9.926;2023-06-26T14:59:11;7.53;;;3.65;;
66870;SDS011;53780;44.998;9.926;2023-06-26T15:02:16;6.50;;;3.67;;
66870;SDS011;53780;44.998;9.926;2023-06-26T15:05:20;5.90;;;3.97;;
66870;SDS011;53780;44.998;9.926;2023-06-26T15:08:25;7.93;;;3.95;;
66870;SDS011;53780;44.998;9.926;2023-06-26T15:11:29;7.22;;;3.88;;
66870;SDS011;53780;44.998;9.926;2023-06-26T15:14:33;6.20;;;3.88;;
66870;SDS011;53780;44.998;9.926;2023-06-26T15:17:39;7.40;;;3.70;;
66870;SDS011;53780;44.998;9.926;2023-06-26T15:20:43;7.13;;;3.78;;
66870;SDS011;53780;44.998;9.926;2023-06-26T15:23:47;8.98;;;4.22;;
66870;SDS011;53780;44.998;9.926;2023-06-26T15:26:51;6.25;;;3.90;;
66870;SDS011;53780;44.998;9.926;2023-06-26T15:29:55;6.82;;;4.00;;
66870;SDS011;53780;44.998;9.926;2023-06-26T15:32:58;7.20;;;4.10;;
66870;SDS011;53780;44.998;9.926;2023-06-26T15:36:03;7.72;;;3.70;;
66870;SDS011;53780;44.998;9.926;2023-06-26T15:39:08;8.55;;;4.10;;
66870;SDS011;53780;44.998;9.926;2023-06-26T15:42:13;6.22;;;4.10;;
66870;SDS011;53780;44.998;9.926;2023-06-26T15:45:17;7.28;;;3.95;;
66870;SDS011;53780;44.998;9.926;2023-06-26T15:48:29;6.60;;;3.70;;
66870;SDS011;53780;44.998;9.926;2023-06-26T15:51:33;8.73;;;4.07;;
66870;SDS011;53780;44.998;9.926;2023-06-26T15:54:40;6.25;;;3.88;;
66870;SDS011;53780;44.998;9.926;2023-06-26T15:57:43;6.13;;;3.80;;
66870;SDS011;53780;44.998;9.926;2023-06-26T16:00:47;6.95;;;3.72;;
66870;SDS011;53780;44.998;9.926;2023-06-26T16:03:51;6.70;;;4.00;;
66870;SDS011;53780;44.998;9.926;2023-06-26T16:06:55;7.68;;;3.92;;
66870;SDS011;53780;44.998;9.926;2023-06-26T16:10:00;5.88;;;3.80;;
66870;SDS011;53780;44.998;9.926;2023-06-26T16:13:04;7.72;;;4.00;;
66870;SDS011;53780;44.998;9.926;2023-06-26T16:16:07;6.45;;;3.50;;
66870;SDS011;53780;44.998;9.926;2023-06-26T16:19:11;9.50;;;4.10;;
66870;SDS011;53780;44.998;9.926;2023-06-26T16:22:15;6.68;;;3.58;;
66870;SDS011;53780;44.998;9.926;2023-06-26T16:25:19;6.63;;;4.03;;
66870;SDS011;53780;44.998;9.926;2023-06-26T16:28:23;9.43;;;3.95;;
66870;SDS011;53780;44.998;9.926;2023-06-26T16:31:27;6.85;;;3.97;;
66870;SDS011;53780;44.998;9.926;2023-06-26T16:34:31;6.80;;;4.30;;
66870;SDS011;53780;44.998;9.926;2023-06-26T16:37:35;6.13;;;3.72;;
66870;SDS011;53780;44.998;9.926;2023-06-26T16:40:38;7.72;;;4.10;;
66870;SDS011;53780;44.998;9.926;2023-06-26T16:43:42;6.57;;;3.83;;
66870;SDS011;53780;44.998;9.926;2023-06-26T16:46:46;9.35;;;4.00;;
66870;SDS011;53780;44.998;9.926;2023-06-26T16:49:50;6.67;;;3.93;;
66870;SDS011;53780;44.998;9.926;2023-06-26T16:52:54;9.02;;;3.90;;
66870;SDS011;53780;44.998;9.926;2023-06-26T16:55:58;7.00;;;4.22;;
66870;SDS011;53780;44.998;9.926;2023-06-26T16:59:02;6.65;;;4.20;;
66870;SDS011;53780;44.998;9.926;2023-06-26T17:02:05;8.43;;;4.45;;
66870;SDS011;53780;44.998;9.926;2023-06-26T17:05:09;8.27;;;4.00;;
66870;SDS011;53780;44.998;9.926;2023-06-26T17:08:14;9.30;;;3.88;;
66870;SDS011;53780;44.998;9.926;2023-06-26T17:11:18;9.07;;;4.10;;
66870;SDS011;53780;44.998;9.926;2023-06-26T17:14:22;6.95;;;4.10;;
66870;SDS011;53780;44.998;9.926;2023-06-26T17:17:26;8.93;;;4.22;;
66870;SDS011;53780;44.998;9.926;2023-06-26T17:20:29;6.60;;;3.97;;
66870;SDS011;53780;44.998;9.926;2023-06-26T17:23:35;6.20;;;4.00;;
66870;SDS011;53780;44.998;9.926;2023-06-26T17:26:41;7.75;;;4.65;;
66870;SDS011;53780;44.998;9.926;2023-06-26T17:29:49;6.70;;;4.03;;
66870;SDS011;53780;44.998;9.926;2023-06-26T17:32:53;6.45;;;3.85;;
66870;SDS011;53780;44.998;9.926;2023-06-26T17:35:57;6.73;;;4.20;;
66870;SDS011;53780;44.998;9.926;2023-06-26T17:39:02;8.02;;;4.68;;
66870;SDS011;53780;44.998;9.926;2023-06-26T17:42:06;9.98;;;4.55;;
66870;SDS011;53780;44.998;9.926;2023-06-26T17:45:11;6.75;;;4.00;;
66870;SDS011;53780;44.998;9.926;2023-06-26T17:48:15;7.05;;;4.40;;
66870;SDS011;53780;44.998;9.926;2023-06-26T17:51:18;8.23;;;4.30;;
66870;SDS011;53780;44.998;9.926;2023-06-26T17:54:22;7.00;;;4.10;;
66870;SDS011;53780;44.998;9.926;2023-06-26T17:57:26;7.80;;;4.43;;
66870;SDS011;53780;44.998;9.926;2023-06-26T18:00:30;7.50;;;4.38;;
66870;SDS011;53780;44.998;9.926;2023-06-26T18:03:33;6.95;;;4.80;;
66870;SDS011;53780;44.998;9.926;2023-06-26T18:06:37;7.40;;;4.33;;
66870;SDS011;53780;44.998;9.926;2023-06-26T18:09:41;6.45;;;3.80;;
66870;SDS011;53780;44.998;9.926;2023-06-26T18:12:45;7.88;;;4.50;;
66870;SDS011;53780;44.998;9.926;2023-06-26T18:15:55;7.05;;;4.18;;
66870;SDS011;53780;44.998;9.926;2023-06-26T18:18:58;8.32;;;4.05;;
66870;SDS011;53780;44.998;9.926;2023-06-26T18:22:02;7.40;;;4.30;;
66870;SDS011;53780;44.998;9.926;2023-06-26T18:25:06;9.00;;;4.55;;
66870;SDS011;53780;44.998;9.926;2023-06-26T18:28:10;7.22;;;3.80;;
66870;SDS011;53780;44.998;9.926;2023-06-26T18:31:15;7.95;;;4.20;;
66870;SDS011;53780;44.998;9.926;2023-06-26T18:34:19;7.18;;;4.40;;
66870;SDS011;53780;44.998;9.926;2023-06-26T18:37:24;8.07;;;4.67;;
66870;SDS011;53780;44.998;9.926;2023-06-26T18:40:28;10.13;;;4.78;;